createdAt,value
2023-04-18T00:01:55.734Z,102767.50
2023-04-18T00:04:23.760Z,102755.84
2023-04-18T00:06:51.978Z,102763.94
2023-04-18T00:09:19.894Z,102769.28
2023-04-18T00:11:47.863Z,102769.31
2023-04-18T00:14:17.151Z,102766.66
2023-04-18T00:16:45.965Z,102772.13
2023-04-18T00:19:14.350Z,102769.53
2023-04-18T00:21:44.721Z,102763.41
2023-04-18T00:24:13.005Z,102772.38
2023-04-18T00:26:41.166Z,102753.91
2023-04-18T00:29:09.050Z,102760.09
2023-04-18T00:31:38.449Z,102765.56
2023-04-18T00:34:06.294Z,102763.88
2023-04-18T00:36:34.180Z,102767.59
2023-04-18T00:39:02.100Z,102766.81
2023-04-18T00:41:30.031Z,102762.50
2023-04-18T00:43:57.944Z,102764.41
2023-04-18T00:46:25.832Z,102765.44
2023-04-18T00:48:55.096Z,102764.69
2023-04-18T00:51:22.954Z,102758.63
2023-04-18T00:53:50.804Z,102761.41
2023-04-18T00:56:18.766Z,102757.00
2023-04-18T00:58:46.632Z,102754.44
2023-04-18T01:01:14.522Z,102756.28
2023-04-18T01:03:42.597Z,102748.41
2023-04-18T01:06:12.121Z,102754.75
2023-04-18T01:08:39.984Z,102753.06
2023-04-18T01:11:07.860Z,102753.19
2023-04-18T01:13:35.730Z,102748.84
2023-04-18T01:16:03.655Z,102748.97
2023-04-18T01:18:31.627Z,102748.13
2023-04-18T01:21:00.575Z,102737.59
2023-04-18T01:23:30.592Z,102740.34
2023-04-18T01:25:59.928Z,102744.88
2023-04-18T01:28:27.904Z,102737.88
2023-04-18T01:30:55.890Z,102739.66
2023-04-18T01:33:23.777Z,102743.22
2023-04-18T01:35:51.644Z,102737.97
2023-04-18T01:38:19.512Z,102741.50
2023-04-18T01:40:47.554Z,102738.94
2023-04-18T01:43:16.841Z,102737.31
2023-04-18T01:45:44.771Z,102733.84
2023-04-18T01:48:12.696Z,102737.44
2023-04-18T01:50:40.663Z,102740.13
2023-04-18T01:53:08.553Z,102741.06
2023-04-18T01:55:36.458Z,102746.50
2023-04-18T01:58:04.415Z,102710.47
2023-04-18T02:00:33.764Z,102740.44
2023-04-18T02:03:01.894Z,102744.00
2023-04-18T02:05:30.072Z,102749.44
2023-04-18T02:07:57.941Z,102753.88
2023-04-18T02:10:26.011Z,102755.66
2023-04-18T02:12:54.000Z,102765.53
2023-04-18T02:15:22.256Z,102766.44
2023-04-18T02:17:51.610Z,102761.13
2023-04-18T02:20:19.495Z,102753.22
2023-04-18T02:22:47.901Z,102762.03
2023-04-18T02:25:15.758Z,102757.59
2023-04-18T02:27:43.645Z,102751.34
2023-04-18T02:30:12.159Z,102749.56
2023-04-18T02:32:40.135Z,102754.97
2023-04-18T02:35:09.956Z,102757.72
2023-04-18T02:37:37.846Z,102753.31
2023-04-18T02:40:07.273Z,102764.97
2023-04-18T02:42:35.188Z,102754.41
2023-04-18T02:45:03.084Z,102767.84
2023-04-18T02:47:35.392Z,102764.34
2023-04-18T02:50:13.217Z,102765.31
2023-04-18T02:52:41.106Z,102761.03
2023-04-18T02:55:09.674Z,102768.16
2023-04-18T02:57:37.536Z,102763.84
2023-04-18T03:00:07.203Z,102755.94
2023-04-18T03:02:35.270Z,102759.59
2023-04-18T03:05:03.426Z,102759.63
2023-04-18T03:07:32.777Z,102767.66
2023-04-18T03:10:00.970Z,102760.63
2023-04-18T03:12:28.794Z,102759.78
2023-04-18T03:14:56.679Z,102763.41
2023-04-18T03:17:24.573Z,102759.91
2023-04-18T03:19:52.476Z,102754.72
2023-04-18T03:22:20.419Z,102757.38
2023-04-18T03:24:49.652Z,102754.84
2023-04-18T03:27:17.605Z,102762.06
2023-04-18T03:29:45.552Z,102758.63
2023-04-18T03:32:13.427Z,102760.41
2023-04-18T03:34:41.345Z,102764.00
2023-04-18T03:37:09.276Z,102762.22
2023-04-18T03:39:37.144Z,102765.00
2023-04-18T03:42:06.518Z,102762.38
2023-04-18T03:44:34.439Z,102759.75
2023-04-18T03:47:02.396Z,102761.59
2023-04-18T03:49:30.256Z,102757.19
2023-04-18T03:51:58.144Z,102754.63
2023-04-18T03:54:26.011Z,102759.19
2023-04-18T03:56:53.869Z,102756.63
2023-04-18T03:59:23.133Z,102755.84
2023-04-18T04:01:51.045Z,102750.59
2023-04-18T04:04:19.195Z,102757.75
2023-04-18T04:06:47.319Z,102756.09
2023-04-18T04:09:15.210Z,102765.00
2023-04-18T04:11:43.420Z,102762.38
2023-04-18T04:14:11.382Z,102762.41
2023-04-18T04:16:40.694Z,102761.56
2023-04-18T04:19:08.666Z,102755.38
2023-04-18T04:21:36.591Z,102756.28
2023-04-18T04:24:04.785Z,102755.31
2023-04-18T04:26:32.638Z,102755.31
2023-04-18T04:29:00.495Z,102743.91
2023-04-18T04:31:28.807Z,102759.00
2023-04-18T04:33:58.061Z,102751.09
2023-04-18T04:36:27.279Z,102750.28
2023-04-18T04:38:55.207Z,102751.19
2023-04-18T04:41:24.629Z,102746.78
2023-04-18T04:43:53.170Z,102745.91
2023-04-18T04:46:21.201Z,102743.31
2023-04-18T04:48:49.754Z,102741.53
2023-04-18T04:51:18.986Z,102732.69
2023-04-18T04:53:46.893Z,102745.06
2023-04-18T04:56:14.790Z,102738.88
2023-04-18T04:58:42.698Z,102738.88
2023-04-18T05:01:11.588Z,102739.78
2023-04-18T05:03:39.629Z,102740.69
2023-04-18T05:06:07.797Z,102746.03
2023-04-18T05:08:37.032Z,102746.97
2023-04-18T05:11:04.981Z,102740.78
2023-04-18T05:13:32.889Z,102741.72
2023-04-18T05:16:00.745Z,102730.25
2023-04-18T05:18:28.626Z,102747.94
2023-04-18T05:20:56.961Z,102755.19
2023-04-18T05:23:24.960Z,102747.28
2023-04-18T05:25:54.212Z,102765.03
2023-04-18T05:28:22.828Z,102759.78
2023-04-18T05:30:51.097Z,102766.06
2023-04-18T05:33:19.096Z,102767.91
2023-04-18T05:35:47.077Z,102768.84
2023-04-18T05:38:15.001Z,102773.28
2023-04-18T05:40:43.575Z,102773.34
2023-04-18T05:43:12.950Z,102783.09
2023-04-18T05:45:40.855Z,102782.28
2023-04-18T05:48:08.793Z,102788.44
2023-04-18T05:50:36.710Z,102782.22
2023-04-18T05:53:04.578Z,102783.94
2023-04-18T05:55:32.558Z,102790.13
2023-04-18T05:58:00.485Z,102793.66
2023-04-18T06:00:29.827Z,102798.84
2023-04-18T06:02:57.860Z,102798.75
2023-04-18T06:05:26.231Z,102800.47
2023-04-18T06:07:54.293Z,102795.06
2023-04-18T06:10:22.264Z,102790.53
2023-04-18T06:12:50.121Z,102792.22
2023-04-18T06:15:18.087Z,102796.56
2023-04-18T06:17:47.425Z,102800.00
2023-04-18T06:20:15.488Z,102793.75
2023-04-18T06:22:43.478Z,102800.75
2023-04-18T06:25:11.469Z,102814.81
2023-04-18T06:27:39.524Z,102812.97
2023-04-18T06:30:08.298Z,102807.56
2023-04-18T06:32:36.522Z,102802.16
2023-04-18T06:35:06.716Z,102804.75
2023-04-18T06:37:34.574Z,102810.84
2023-04-18T06:40:02.606Z,102791.28
2023-04-18T06:42:30.453Z,102804.44
2023-04-18T06:44:58.377Z,102806.09
2023-04-18T06:47:26.626Z,102806.03
2023-04-18T06:49:54.613Z,102807.72
2023-04-18T06:52:23.965Z,102813.03
2023-04-18T06:54:52.157Z,102813.81
2023-04-18T06:57:20.036Z,102820.00
2023-04-18T06:59:49.070Z,102802.19
2023-04-18T07:02:16.998Z,102815.31
2023-04-18T07:04:45.031Z,102805.59
2023-04-18T07:07:13.155Z,102804.63
2023-04-18T07:09:42.446Z,102812.44
2023-04-18T07:12:10.649Z,102808.78
2023-04-18T07:14:39.577Z,102814.91
2023-04-18T07:17:07.624Z,102804.09
2023-04-18T07:19:35.602Z,102808.38
2023-04-18T07:22:03.493Z,102801.22
2023-04-18T07:24:31.545Z,102802.97
2023-04-18T07:27:01.520Z,102801.09
2023-04-18T07:29:29.451Z,102812.53
2023-04-18T07:31:58.038Z,102806.16
2023-04-18T07:34:26.798Z,102790.06
2023-04-18T07:36:55.876Z,102756.50
2023-04-18T07:39:23.816Z,102798.59
2023-04-18T07:41:51.856Z,102785.25
2023-04-18T07:44:22.005Z,102787.84
2023-04-18T07:46:50.549Z,102791.47
2023-04-18T07:49:18.844Z,102794.91
2023-04-18T07:51:46.958Z,102808.91
2023-04-18T07:54:15.423Z,102802.53
2023-04-18T07:56:43.348Z,102799.81
2023-04-18T07:59:11.445Z,102803.38
2023-04-18T08:01:40.983Z,102799.41
2023-04-18T08:04:08.988Z,102801.94
2023-04-18T08:06:37.273Z,102796.47
2023-04-18T08:09:06.066Z,102792.66
2023-04-18T08:11:34.123Z,102788.97
2023-04-18T08:14:02.044Z,102786.25
2023-04-18T08:16:29.998Z,102786.16
2023-04-18T08:18:59.288Z,102773.72
2023-04-18T08:21:27.470Z,102792.09
2023-04-18T08:23:55.655Z,102785.03
2023-04-18T08:26:23.610Z,102792.81
2023-04-18T08:28:51.749Z,102797.31
2023-04-18T08:33:47.948Z,102791.06
2023-04-18T08:36:17.310Z,102784.97
2023-04-18T08:38:45.188Z,102792.78
2023-04-18T08:41:13.174Z,102797.09
2023-04-18T08:43:41.215Z,102795.09
2023-04-18T08:46:09.203Z,102800.16
2023-04-18T08:48:37.202Z,102797.38
2023-04-18T08:51:05.609Z,102781.13
2023-04-18T08:53:35.267Z,102794.41
2023-04-18T08:56:05.658Z,102790.97
2023-04-18T08:58:34.982Z,102795.53
2023-04-18T09:01:03.096Z,102792.97
2023-04-18T09:03:39.697Z,102798.53
2023-04-18T09:06:09.450Z,102807.69
2023-04-18T09:08:39.225Z,102799.66
2023-04-18T09:11:23.979Z,102804.13
2023-04-18T09:13:51.976Z,102802.41
2023-04-18T09:16:20.802Z,102792.66
2023-04-18T09:19:12.336Z,102797.09
2023-04-18T09:21:40.899Z,102785.59
2023-04-18T09:24:21.117Z,102797.72
2023-04-18T09:26:50.822Z,102789.59
2023-04-18T09:29:22.418Z,102792.38
2023-04-18T09:31:57.691Z,102784.41
2023-04-18T09:34:26.329Z,102788.63
2023-04-18T09:37:08.171Z,102783.22
2023-04-18T09:39:38.506Z,102773.94
2023-04-18T09:42:07.146Z,102762.19
2023-04-18T09:44:35.059Z,102771.38
2023-04-18T09:47:03.120Z,102772.94
2023-04-18T09:49:31.040Z,102776.22
2023-04-18T09:51:59.046Z,102771.59
2023-04-18T09:54:27.400Z,102774.13
2023-04-18T09:56:57.075Z,102765.84
2023-04-18T09:59:36.564Z,102772.69
2023-04-18T10:02:04.880Z,102763.44
2023-04-18T10:04:35.744Z,102767.63
2023-04-18T10:07:04.005Z,102757.44
2023-04-18T10:09:33.395Z,102763.28
2023-04-18T10:12:03.486Z,102753.38
2023-04-18T10:14:32.514Z,102748.69
2023-04-18T10:17:01.100Z,102742.28
2023-04-18T10:19:30.185Z,102739.31
2023-04-18T10:21:59.153Z,102732.19
2023-04-18T10:24:48.507Z,102738.16
2023-04-18T10:27:18.535Z,102739.63
2023-04-18T10:29:50.729Z,102738.53
2023-04-18T10:32:19.130Z,102724.25
2023-04-18T10:34:47.814Z,102738.69
2023-04-18T10:37:17.759Z,102715.44
2023-04-18T10:39:50.665Z,102727.66
2023-04-18T10:42:20.039Z,102728.13
2023-04-18T10:45:18.494Z,102733.25
2023-04-18T10:47:46.448Z,102725.03
2023-04-18T10:50:14.844Z,102723.81
2023-04-18T10:52:45.713Z,102732.31
2023-04-18T10:55:20.633Z,102724.16
2023-04-18T10:57:50.703Z,102736.81
2023-04-18T11:00:21.794Z,102728.59
2023-04-18T11:02:52.227Z,102710.66
2023-04-18T11:05:21.839Z,102733.06
2023-04-18T11:07:50.312Z,102698.78
2023-04-18T11:10:19.009Z,102712.31
2023-04-18T11:12:46.982Z,102724.19
2023-04-18T11:15:17.769Z,102709.06
2023-04-18T11:17:45.795Z,102706.19
2023-04-18T11:20:14.956Z,102697.84
2023-04-18T11:22:47.606Z,102707.16
2023-04-18T11:25:15.761Z,102682.50
2023-04-18T11:27:45.116Z,102700.94
2023-04-18T11:30:13.850Z,102694.56
2023-04-18T11:32:47.618Z,102683.56
2023-04-18T11:35:17.733Z,102688.28
2023-04-18T11:37:45.997Z,102675.44
2023-04-18T11:40:14.615Z,102668.50
2023-04-18T11:42:42.550Z,102666.66
2023-04-18T11:45:12.443Z,102650.78
2023-04-18T11:47:41.946Z,102647.31
2023-04-18T11:50:12.764Z,102639.66
2023-04-18T11:52:42.947Z,102644.06
2023-04-18T11:55:17.893Z,102630.47
2023-04-18T11:57:56.303Z,102634.72
2023-04-18T12:00:33.667Z,102632.13
2023-04-18T12:03:02.996Z,102633.53
2023-04-18T12:05:33.103Z,102619.38
2023-04-18T12:08:11.502Z,102633.19
2023-04-18T12:10:39.778Z,102633.41
2023-04-18T12:13:09.253Z,102628.19
2023-04-18T12:15:39.421Z,102623.94
2023-04-18T12:18:09.773Z,102624.16
2023-04-18T12:20:46.007Z,102617.59
2023-04-18T12:23:35.576Z,102614.97
2023-04-18T12:26:04.351Z,102618.34
2023-04-18T12:28:32.226Z,102615.81
2023-04-18T12:31:00.915Z,102627.13
2023-04-18T12:33:28.978Z,102604.50
2023-04-18T12:35:58.215Z,102618.69
2023-04-18T12:38:27.076Z,102618.22
2023-04-18T12:40:54.994Z,102604.09
2023-04-18T12:43:23.076Z,102606.09
2023-04-18T12:45:51.109Z,102594.66
2023-04-18T12:48:19.326Z,102604.00
2023-04-18T12:50:47.282Z,102596.56
2023-04-18T12:53:16.782Z,102597.06
2023-04-18T12:55:44.759Z,102589.06
2023-04-18T12:58:15.178Z,102593.34
2023-04-18T13:00:43.151Z,102586.88
2023-04-18T13:03:13.173Z,102581.50
2023-04-18T13:05:41.573Z,102570.53
2023-04-18T13:08:16.751Z,102573.91
2023-04-18T13:10:47.678Z,102577.59
2023-04-18T13:13:15.789Z,102579.88
2023-04-18T13:15:43.831Z,102565.38
2023-04-18T13:18:11.724Z,102590.75
2023-04-18T13:20:39.635Z,102571.97
2023-04-18T13:23:07.582Z,102571.63
2023-04-18T13:25:35.576Z,102587.53
2023-04-18T13:28:05.853Z,102573.81
2023-04-18T13:30:38.453Z,102560.53
2023-04-18T13:33:06.937Z,102554.78
2023-04-18T13:35:35.381Z,102568.38
2023-04-18T13:38:04.166Z,102555.72
2023-04-18T13:40:33.496Z,102558.50
2023-04-18T13:43:04.211Z,102568.06
2023-04-18T13:45:34.013Z,102562.28
2023-04-18T13:48:06.189Z,102561.44
2023-04-18T13:50:37.344Z,102588.16
2023-04-18T13:53:08.071Z,102563.06
2023-04-18T13:55:37.108Z,102548.81
2023-04-18T13:58:05.049Z,102567.41
2023-04-18T14:00:34.418Z,102578.06
2023-04-18T14:03:02.591Z,102575.03
2023-04-18T14:05:31.098Z,102553.81
2023-04-18T14:08:04.132Z,102570.22
2023-04-18T14:10:32.411Z,102573.78
2023-04-18T14:13:00.749Z,102563.00
2023-04-18T14:15:30.795Z,102555.38
2023-04-18T14:18:01.078Z,102540.50
2023-04-18T14:20:34.296Z,102537.81
2023-04-18T14:23:02.375Z,102524.44
2023-04-18T14:25:30.590Z,102564.56
2023-04-18T14:28:05.722Z,102564.53
2023-04-18T14:30:33.760Z,102561.81
2023-04-18T14:33:03.749Z,102556.25
2023-04-18T14:35:31.783Z,102552.00
2023-04-18T14:37:59.772Z,102552.31
2023-04-18T14:40:27.856Z,102543.19
2023-04-18T14:42:57.872Z,102547.91
2023-04-18T14:45:26.177Z,102539.59
2023-04-18T14:47:55.694Z,102543.19
2023-04-18T14:50:25.506Z,102537.06
2023-04-18T14:52:53.435Z,102528.13
2023-04-18T14:55:21.342Z,102529.16
2023-04-18T14:57:49.419Z,102526.59
2023-04-18T15:00:18.548Z,102522.88
2023-04-18T15:02:46.634Z,102528.38
2023-04-18T15:05:15.261Z,102532.88
2023-04-18T15:07:45.178Z,102521.59
2023-04-18T15:10:15.258Z,102523.13
2023-04-18T15:12:43.444Z,102501.47
2023-04-18T15:15:12.251Z,102518.31
2023-04-18T15:17:40.530Z,102516.22
2023-04-18T15:20:09.930Z,102515.81
2023-04-18T15:22:38.076Z,102514.84
2023-04-18T15:25:08.625Z,102514.25
2023-04-18T15:27:39.619Z,102488.16
2023-04-18T15:30:11.105Z,102507.88
2023-04-18T15:32:40.297Z,102481.91
2023-04-18T15:35:09.343Z,102491.28
2023-04-18T15:37:37.954Z,102494.28
2023-04-18T15:40:11.242Z,102503.22
2023-04-18T15:42:59.924Z,102493.75
2023-04-18T15:45:28.060Z,102476.94
2023-04-18T15:47:56.077Z,102486.88
2023-04-18T15:50:24.639Z,102472.00
2023-04-18T15:52:52.979Z,102479.03
2023-04-18T15:55:22.424Z,102483.22
2023-04-18T15:57:50.399Z,102482.16
2023-04-18T16:00:19.829Z,102488.25
2023-04-18T16:02:47.969Z,102481.34
2023-04-18T16:05:16.145Z,102481.34
2023-04-18T16:07:44.454Z,102466.56
2023-04-18T16:10:12.952Z,102473.03
2023-04-18T16:12:42.460Z,102455.97
2023-04-18T16:15:11.225Z,102464.72
2023-04-18T16:17:39.216Z,102463.03
2023-04-18T16:20:09.296Z,102455.50
2023-04-18T16:22:37.431Z,102455.22
2023-04-18T16:25:06.282Z,102466.75
2023-04-18T16:27:34.267Z,102459.56
2023-04-18T16:30:05.765Z,102459.91
2023-04-18T16:32:34.060Z,102459.06
2023-04-18T16:35:02.116Z,102463.38
2023-04-18T16:37:30.149Z,102467.72
2023-04-18T16:39:58.160Z,102467.03
2023-04-18T16:42:26.263Z,102457.00
2023-04-18T16:44:57.337Z,102458.03
2023-04-18T16:47:26.872Z,102448.03
2023-04-18T16:49:55.784Z,102454.59
2023-04-18T16:52:23.697Z,102453.44
2023-04-18T16:54:52.743Z,102441.56
2023-04-18T16:57:20.804Z,102457.16
2023-04-18T16:59:48.720Z,102461.53
2023-04-18T17:02:18.181Z,102462.25
2023-04-18T17:04:47.562Z,102464.53
2023-04-18T17:07:15.720Z,102462.53
2023-04-18T17:09:43.604Z,102462.97
2023-04-18T17:12:11.607Z,102467.56
2023-04-18T17:14:39.607Z,102446.09
2023-04-18T17:17:07.559Z,102469.91
2023-04-18T17:19:35.472Z,102465.78
2023-04-18T17:22:04.811Z,102459.75
2023-04-18T17:24:32.695Z,102459.66
2023-04-18T17:27:01.262Z,102456.38
2023-04-18T17:29:29.192Z,102451.09
2023-04-18T17:31:57.091Z,102459.22
2023-04-18T17:34:25.037Z,102452.34
2023-04-18T17:36:52.909Z,102450.16
2023-04-18T17:39:25.327Z,102445.13
2023-04-18T17:41:53.344Z,102441.88
2023-04-18T17:44:21.382Z,102444.66
2023-04-18T17:46:50.569Z,102438.44
2023-04-18T17:49:18.644Z,102433.34
2023-04-18T17:51:46.612Z,102437.00
2023-04-18T17:54:14.668Z,102443.59
2023-04-18T17:56:44.196Z,102445.56
2023-04-18T17:59:12.238Z,102440.34
2023-04-18T18:01:41.235Z,102435.28
2023-04-18T18:04:09.260Z,102443.44
2023-04-18T18:06:37.305Z,102442.56
2023-04-18T18:09:05.294Z,102444.25
2023-04-18T18:11:33.395Z,102450.56
2023-04-18T18:14:02.695Z,102444.25
2023-04-18T18:16:30.854Z,102447.22
2023-04-18T18:18:59.730Z,102454.78
2023-04-18T18:21:28.784Z,102457.00
2023-04-18T18:23:56.795Z,102454.72
2023-04-18T18:26:26.441Z,102439.38
2023-04-18T18:28:54.551Z,102463.19
2023-04-18T18:31:25.000Z,102455.41
2023-04-18T18:33:53.006Z,102445.81
2023-04-18T18:36:21.142Z,102449.75
2023-04-18T18:38:49.048Z,102439.38
2023-04-18T18:41:17.068Z,102440.50
2023-04-18T18:43:45.020Z,102461.72
2023-04-18T18:46:13.091Z,102457.41
2023-04-18T18:48:44.995Z,102439.16
2023-04-18T18:51:22.656Z,102463.94
2023-04-18T18:53:54.706Z,102380.44
2023-04-18T18:56:26.294Z,102468.06
2023-04-18T18:58:57.584Z,102445.34
2023-04-18T19:01:30.852Z,102422.94
2023-04-18T19:04:04.631Z,102463.31
2023-04-18T19:06:39.082Z,102464.22
2023-04-18T19:09:12.464Z,102440.97
2023-04-18T19:11:42.028Z,102456.88
2023-04-18T19:14:13.350Z,102468.66
2023-04-18T19:17:01.859Z,102468.00
2023-04-18T19:19:42.360Z,102479.81
2023-04-18T19:22:17.543Z,102460.72
2023-04-18T19:24:53.653Z,102463.78
2023-04-18T19:27:27.324Z,102488.66
2023-04-18T19:29:58.398Z,102485.91
2023-04-18T19:32:33.956Z,102461.66
2023-04-18T19:35:10.980Z,102493.56
2023-04-18T19:37:43.529Z,102468.41
2023-04-18T19:40:18.514Z,102488.78
2023-04-18T19:42:54.719Z,102483.69
2023-04-18T19:45:29.598Z,102485.50
2023-04-18T19:48:05.217Z,102495.38
2023-04-18T19:50:42.267Z,102494.06
2023-04-18T19:53:22.444Z,102509.94
2023-04-18T19:55:51.818Z,102510.00
2023-04-18T19:58:38.822Z,102513.56
2023-04-18T20:01:10.088Z,102511.13
2023-04-18T20:03:41.421Z,102517.44
2023-04-18T20:06:27.983Z,102504.16
2023-04-18T20:09:04.826Z,102521.22
2023-04-18T20:11:39.585Z,102527.50
2023-04-18T20:14:11.077Z,102509.00
2023-04-18T20:17:05.483Z,102498.38
2023-04-18T20:19:40.396Z,102514.38
2023-04-18T20:29:30.927Z,102512.03
2023-04-18T20:32:06.649Z,102487.72
2023-04-18T20:34:37.912Z,102526.38
2023-04-18T20:37:12.171Z,102528.25
2023-04-18T20:39:48.978Z,102495.81
2023-04-18T20:42:20.375Z,102520.38
2023-04-18T20:44:51.004Z,102524.84
2023-04-18T20:47:30.770Z,102507.44
2023-04-18T20:50:09.404Z,102521.47
2023-04-18T20:52:43.565Z,102526.72
2023-04-18T20:55:23.900Z,102533.91
2023-04-18T20:58:07.121Z,102524.16
2023-04-18T21:00:48.887Z,102517.16
2023-04-18T21:03:34.242Z,102535.13
2023-04-18T21:06:14.112Z,102513.91
2023-04-18T21:08:43.295Z,102454.63
2023-04-18T21:11:22.110Z,102531.84
2023-04-18T21:13:54.069Z,102520.31
2023-04-18T21:16:24.193Z,102525.69
2023-04-18T21:18:52.638Z,102513.34
2023-04-18T21:21:24.313Z,102512.59
2023-04-18T21:23:52.925Z,102522.19
2023-04-18T21:26:22.215Z,102515.09
2023-04-18T21:28:57.888Z,102508.94
2023-04-18T21:31:27.042Z,102508.19
2023-04-18T21:33:55.941Z,102517.94
2023-04-18T21:36:25.170Z,102511.63
2023-04-18T21:38:54.104Z,102517.03
2023-04-18T21:41:24.331Z,102510.81
2023-04-18T21:43:52.954Z,102507.31
2023-04-18T21:46:21.820Z,102513.50
2023-04-18T21:48:50.656Z,102515.34
2023-04-18T21:51:19.347Z,102508.09
2023-04-18T21:53:48.180Z,102511.94
2023-04-18T21:56:17.480Z,102524.34
2023-04-18T21:58:47.872Z,102518.22
2023-04-18T22:01:16.551Z,102516.53
2023-04-18T22:03:45.308Z,102521.22
2023-04-18T22:06:14.097Z,102503.63
2023-04-18T22:08:43.897Z,102531.09
2023-04-18T22:11:13.867Z,102524.09
2023-04-18T22:13:45.115Z,102526.00
2023-04-18T22:16:15.383Z,102526.88
2023-04-18T22:18:43.974Z,102526.19
2023-04-18T22:21:12.529Z,102517.53
2023-04-18T22:23:40.969Z,102532.38
2023-04-18T22:26:09.246Z,102533.41
2023-04-18T22:28:37.881Z,102531.88
2023-04-18T22:31:07.043Z,102519.84
2023-04-18T22:33:37.263Z,102533.34
2023-04-18T22:36:06.598Z,102531.78
2023-04-18T22:38:35.303Z,102511.13
2023-04-18T22:41:03.991Z,102538.63
2023-04-18T22:43:32.583Z,102536.03
2023-04-18T22:46:01.391Z,102536.25
2023-04-18T22:48:30.175Z,102535.53
2023-04-18T22:51:01.995Z,102520.91
2023-04-18T22:53:30.789Z,102530.69
2023-04-18T22:55:59.325Z,102533.50
2023-04-18T22:58:28.114Z,102533.56
2023-04-18T23:00:56.743Z,102515.34
2023-04-18T23:03:25.432Z,102524.44
2023-04-18T23:05:54.243Z,102525.47
2023-04-18T23:08:24.254Z,102525.69
2023-04-18T23:10:52.234Z,102532.03
2023-04-18T23:13:20.907Z,102528.66
2023-04-18T23:15:49.586Z,102527.81
2023-04-18T23:18:18.119Z,102530.53
2023-04-18T23:20:48.416Z,102513.69
2023-04-18T23:23:17.043Z,102521.53
2023-04-18T23:25:47.124Z,102514.19
2023-04-18T23:28:17.271Z,102523.84
2023-04-18T23:30:45.523Z,102523.75
2023-04-18T23:41:47.052Z,102498.63
2023-04-18T23:44:17.108Z,102505.75
2023-04-18T23:46:45.666Z,102507.47
2023-04-18T23:49:14.291Z,102494.34
2023-04-18T23:51:42.814Z,102495.31
2023-04-18T23:54:11.394Z,102506.88
2023-04-18T23:56:40.104Z,102511.44
2023-04-18T23:59:08.765Z,102507.19
